Time;durP1;ratioP1;P1;durP2;ratioP2;P2;SDS_P1;SDS_P2;PMS_P1;PMS_P2;Temp;Humidity;BMP_temperature;BMP_pressure;BME280_temperature;BME280_humidity;BME280_pressure;Samples;Min_cycle;Max_cycle;Signal;HPM_P1;HPM_P2
2024/02/04 00:01:42;;;;;;;22.90;20.90;;;;;;;;;;5047822;28;20017;-54
2024/02/04 00:04:08;;;;;;;22.98;20.98;;;;;;;;;;5047513;28;20029;-52
2024/02/04 00:06:34;;;;;;;22.85;20.85;;;;;;;;;;5047947;28;20028;-54
2024/02/04 00:09:00;;;;;;;23.00;21.00;;;;;;;;;;5047796;28;20064;-58
2024/02/04 00:11:26;;;;;;;23.17;21.17;;;;;;;;;;5046726;28;20072;-58
2024/02/04 00:13:52;;;;;;;23.00;21.00;;;;;;;;;;5047477;28;20033;-56
2024/02/04 00:16:18;;;;;;;23.20;21.20;;;;;;;;;;5062445;28;20113;-55
2024/02/04 00:18:44;;;;;;;22.83;20.83;;;;;;;;;;5047572;28;20025;-57
2024/02/04 00:21:10;;;;;;;22.42;20.42;;;;;;;;;;5047596;28;20029;-55
2024/02/04 00:23:36;;;;;;;22.65;20.65;;;;;;;;;;5047581;28;20071;-56
2024/02/04 00:26:02;;;;;;;22.38;20.38;;;;;;;;;;5047292;28;20060;-59
2024/02/04 00:28:28;;;;;;;21.55;19.65;;;;;;;;;;5046687;28;20028;-55
2024/02/04 00:30:55;;;;;;;22.42;20.42;;;;;;;;;;5047020;28;20037;-58
2024/02/04 00:33:22;;;;;;;22.38;20.38;;;;;;;;;;5047196;28;20049;-55
2024/02/04 00:35:48;;;;;;;22.67;20.67;;;;;;;;;;5046271;28;20520;-57
2024/02/04 00:38:14;;;;;;;21.75;19.85;;;;;;;;;;5047682;28;20104;-54
2024/02/04 00:40:40;;;;;;;21.33;19.42;;;;;;;;;;5047349;28;20036;-54
2024/02/04 00:43:06;;;;;;;22.00;20.00;;;;;;;;;;5047108;28;20200;-56
2024/02/04 00:45:32;;;;;;;17.98;16.17;;;;;;;;;;5046669;28;20119;-54
2024/02/04 00:47:58;;;;;;;18.58;16.77;;;;;;;;;;5048405;28;20028;-52
2024/02/04 00:50:24;;;;;;;20.42;18.52;;;;;;;;;;5066945;22;20041;-51
2024/02/04 00:52:53;;;;;;;20.30;18.40;;;;;;;;;;5028342;28;20071;-50
2024/02/04 00:55:19;;;;;;;21.00;19.10;;;;;;;;;;5029213;28;20590;-48
2024/02/04 00:57:45;;;;;;;20.95;19.05;;;;;;;;;;5028161;28;20253;-51
2024/02/04 01:00:12;;;;;;;22.20;20.30;;;;;;;;;;5029671;28;20021;-48
2024/02/04 01:02:38;;;;;;;21.75;19.85;;;;;;;;;;5028321;28;20028;-48
2024/02/04 01:05:04;;;;;;;22.67;20.77;;;;;;;;;;5028272;28;20076;-51
2024/02/04 01:07:30;;;;;;;21.95;20.05;;;;;;;;;;5029430;28;20467;-51
2024/02/04 01:09:56;;;;;;;22.15;20.25;;;;;;;;;;5030234;28;20061;-51
2024/02/04 01:12:22;;;;;;;23.00;21.00;;;;;;;;;;5029790;28;20115;-50
2024/02/04 01:14:48;;;;;;;23.25;21.25;;;;;;;;;;5030341;28;20483;-50
2024/02/04 01:17:14;;;;;;;23.15;21.15;;;;;;;;;;5030271;28;20025;-48
2024/02/04 01:19:40;;;;;;;22.50;20.60;;;;;;;;;;5030288;28;20100;-46
2024/02/04 01:22:06;;;;;;;22.75;20.85;;;;;;;;;;5030132;28;20025;-48
2024/02/04 01:24:32;;;;;;;22.15;20.25;;;;;;;;;;5030314;28;20029;-45
2024/02/04 01:26:58;;;;;;;22.27;20.38;;;;;;;;;;5030232;28;20125;-50
2024/02/04 01:29:24;;;;;;;21.88;19.98;;;;;;;;;;5030182;28;20104;-47
2024/02/04 01:31:51;;;;;;;21.95;20.05;;;;;;;;;;5029946;28;20072;-49
2024/02/04 01:34:17;;;;;;;21.98;20.08;;;;;;;;;;5030207;28;20018;-51
2024/02/04 01:36:43;;;;;;;21.88;19.98;;;;;;;;;;5030348;28;20021;-50
2024/02/04 01:39:10;;;;;;;22.02;20.13;;;;;;;;;;5045229;28;20471;-47
2024/02/04 01:41:36;;;;;;;22.10;20.20;;;;;;;;;;5052275;28;20025;-49
2024/02/04 01:44:02;;;;;;;21.70;19.80;;;;;;;;;;5054228;28;20033;-48
2024/02/04 01:46:29;;;;;;;21.73;19.83;;;;;;;;;;5054403;28;20530;-47
2024/02/04 01:48:55;;;;;;;21.02;19.13;;;;;;;;;;5054073;28;20037;-49
2024/02/04 01:51:22;;;;;;;21.38;19.48;;;;;;;;;;5053828;28;20071;-49
2024/02/04 01:53:49;;;;;;;21.33;19.42;;;;;;;;;;5053833;28;20029;-49
2024/02/04 01:56:15;;;;;;;21.08;19.17;;;;;;;;;;5052767;28;20017;-54
2024/02/04 01:58:44;;;;;;;21.17;19.27;;;;;;;;;;5054029;28;20045;-50
2024/02/04 02:01:09;;;;;;;;;;;;;;;;;;5054150;28;20457;-48
2024/02/04 02:03:36;;;;;;;20.65;18.80;;;;;;;;;;5053658;28;19912;-46
2024/02/04 02:06:02;;;;;;;20.58;18.75;;;;;;;;;;5053740;28;20390;-45
2024/02/04 02:08:28;;;;;;;21.40;19.50;;;;;;;;;;5053429;28;20036;-49
2024/02/04 02:11:01;;;;;;;21.75;19.85;;;;;;;;;;5053433;28;20053;-50
2024/02/04 02:13:29;;;;;;;22.20;20.30;;;;;;;;;;5053486;28;20040;-50
2024/02/04 02:15:59;;;;;;;21.83;19.92;;;;;;;;;;5053771;28;20502;-52
2024/02/04 02:18:34;;;;;;;21.58;19.67;;;;;;;;;;5052349;28;20119;-53
2024/02/04 02:21:19;;;;;;;21.52;19.63;;;;;;;;;;5052162;28;20060;-48
2024/02/04 02:23:53;;;;;;;21.52;19.63;;;;;;;;;;5053179;28;20368;-51
2024/02/04 02:26:19;;;;;;;21.27;19.38;;;;;;;;;;5052065;28;20024;-50
2024/02/04 02:28:45;;;;;;;21.17;19.27;;;;;;;;;;5053303;28;20056;-50
2024/02/04 02:31:11;;;;;;;21.42;19.52;;;;;;;;;;5053047;28;20075;-51
2024/02/04 02:33:37;;;;;;;21.75;19.85;;;;;;;;;;5053420;28;20033;-45
2024/02/04 02:36:04;;;;;;;21.85;19.95;;;;;;;;;;5053451;28;20108;-48
2024/02/04 02:38:34;;;;;;;21.75;19.85;;;;;;;;;;5053285;28;20017;-49
2024/02/04 02:41:04;;;;;;;21.10;19.20;;;;;;;;;;5053141;28;20029;-46
2024/02/04 02:43:30;;;;;;;21.25;19.35;;;;;;;;;;5053023;28;20384;-46
2024/02/04 02:45:57;;;;;;;21.85;19.95;;;;;;;;;;5053714;28;20487;-53
2024/02/04 02:48:23;;;;;;;21.95;20.05;;;;;;;;;;5052067;28;20395;-53
2024/02/04 02:50:49;;;;;;;24.10;22.10;;;;;;;;;;5053092;28;20064;-49
2024/02/04 02:53:15;;;;;;;21.77;19.88;;;;;;;;;;5050608;28;20029;-47
2024/02/04 02:55:41;;;;;;;22.50;20.50;;;;;;;;;;5054022;28;20021;-54
2024/02/04 02:58:07;;;;;;;21.38;19.48;;;;;;;;;;5054302;28;20025;-53
2024/02/04 03:00:33;;;;;;;22.08;20.17;;;;;;;;;;5052861;28;20055;-51
2024/02/04 03:02:59;;;;;;;20.73;18.92;;;;;;;;;;5052977;28;20087;-47
2024/02/04 03:05:25;;;;;;;20.73;18.90;;;;;;;;;;5055456;28;20033;-48
2024/02/04 03:07:51;;;;;;;20.27;18.48;;;;;;;;;;5056214;28;20064;-53
2024/02/04 03:10:17;;;;;;;20.40;18.50;;;;;;;;;;5053489;28;20057;-48
2024/02/04 03:12:43;;;;;;;20.80;18.90;;;;;;;;;;5052466;28;20025;-49
2024/02/04 03:15:09;;;;;;;20.55;18.65;;;;;;;;;;5052822;28;20061;-50
2024/02/04 03:17:35;;;;;;;21.17;19.27;;;;;;;;;;5052697;28;20100;-48
2024/02/04 03:20:01;;;;;;;20.60;18.70;;;;;;;;;;5052320;28;20063;-51
2024/02/04 03:22:27;;;;;;;20.67;18.77;;;;;;;;;;5050872;28;20025;-50
2024/02/04 03:24:53;;;;;;;20.38;18.48;;;;;;;;;;5052275;28;20051;-51
2024/02/04 03:27:19;;;;;;;19.98;18.17;;;;;;;;;;5050907;28;20020;-50
2024/02/04 03:29:45;;;;;;;20.67;18.77;;;;;;;;;;5050970;28;20466;-49
2024/02/04 03:32:12;;;;;;;18.50;16.70;;;;;;;;;;5051960;28;20517;-47
2024/02/04 03:34:39;;;;;;;16.88;15.18;;;;;;;;;;5052370;28;20104;-49
2024/02/04 03:37:05;;;;;;;18.38;15.82;;;;;;;;;;5052313;28;20017;-48
2024/02/04 03:39:31;;;;;;;15.20;13.20;;;;;;;;;;5052298;28;20074;-49
2024/02/04 03:41:57;;;;;;;15.48;13.38;;;;;;;;;;5051869;28;20021;-48
2024/02/04 03:44:23;;;;;;;15.63;13.20;;;;;;;;;;5052110;28;20028;-48
2024/02/04 03:46:50;;;;;;;14.80;11.73;;;;;;;;;;5052163;28;20024;-47
2024/02/04 03:49:16;;;;;;;14.93;11.95;;;;;;;;;;5051917;28;20028;-50
2024/02/04 03:51:42;;;;;;;15.65;11.82;;;;;;;;;;5051496;28;20061;-49
2024/02/04 03:54:08;;;;;;;14.70;11.40;;;;;;;;;;5051738;28;20106;-50
2024/02/04 03:56:34;;;;;;;14.23;10.68;;;;;;;;;;5052388;28;20032;-48
2024/02/04 03:59:00;;;;;;;14.50;10.70;;;;;;;;;;5052756;28;20021;-48
2024/02/04 04:01:26;;;;;;;14.00;10.00;;;;;;;;;;5052353;28;20406;-47
2024/02/04 04:03:52;;;;;;;13.93;9.73;;;;;;;;;;5051274;28;20070;-48
2024/02/04 04:06:18;;;;;;;14.05;9.50;;;;;;;;;;5052661;28;20033;-48
2024/02/04 04:08:44;;;;;;;13.60;8.80;;;;;;;;;;5051449;28;20029;-48
2024/02/04 04:11:10;;;;;;;14.00;9.82;;;;;;;;;;5052862;28;20025;-48
2024/02/04 04:13:36;;;;;;;14.32;9.10;;;;;;;;;;5052485;28;20028;-50
2024/02/04 04:16:03;;;;;;;13.50;8.45;;;;;;;;;;5052849;28;20024;-46
2024/02/04 04:18:29;;;;;;;14.65;9.63;;;;;;;;;;5052492;28;20024;-49
2024/02/04 04:20:55;;;;;;;13.48;8.20;;;;;;;;;;5052525;28;20044;-47
2024/02/04 04:23:21;;;;;;;13.25;7.90;;;;;;;;;;5052391;28;20395;-50
2024/02/04 04:25:47;;;;;;;13.38;8.07;;;;;;;;;;5052029;28;20036;-51
2024/02/04 04:28:13;;;;;;;13.40;8.00;;;;;;;;;;5050926;28;20028;-49
2024/02/04 04:30:39;;;;;;;15.50;9.15;;;;;;;;;;5050882;28;20039;-49
2024/02/04 04:33:06;;;;;;;13.57;8.38;;;;;;;;;;5045832;28;20471;-46
2024/02/04 04:35:32;;;;;;;13.50;8.10;;;;;;;;;;5027611;28;20392;-50
2024/02/04 04:37:58;;;;;;;16.98;9.38;;;;;;;;;;5014921;28;20088;-49
2024/02/04 04:40:24;;;;;;;14.65;8.05;;;;;;;;;;5019771;28;20182;-50
2024/02/04 04:42:50;;;;;;;13.13;8.63;;;;;;;;;;5024733;28;20438;-53
2024/02/04 04:45:16;;;;;;;13.98;9.50;;;;;;;;;;5029953;28;20048;-51
2024/02/04 04:47:42;;;;;;;12.77;7.90;;;;;;;;;;5031427;28;20105;-51
2024/02/04 04:50:08;;;;;;;14.32;8.88;;;;;;;;;;5044006;28;20128;-54
2024/02/04 04:52:34;;;;;;;14.93;9.07;;;;;;;;;;5051754;28;20023;-51
2024/02/04 04:55:00;;;;;;;13.00;7.75;;;;;;;;;;5051651;28;20067;-51
2024/02/04 04:57:26;;;;;;;14.32;8.25;;;;;;;;;;5051112;28;20036;-53
2024/02/04 04:59:52;;;;;;;13.80;9.00;;;;;;;;;;5051055;28;20543;-49
2024/02/04 05:02:18;;;;;;;14.50;9.25;;;;;;;;;;5049508;28;20028;-48
2024/02/04 05:04:45;;;;;;;14.18;9.48;;;;;;;;;;5050861;28;20033;-49
2024/02/04 05:07:11;;;;;;;13.35;7.93;;;;;;;;;;5050731;28;20503;-51
2024/02/04 05:09:37;;;;;;;14.00;9.18;;;;;;;;;;5050747;28;20128;-55
2024/02/04 05:12:03;;;;;;;13.35;8.00;;;;;;;;;;5050902;28;20033;-52
2024/02/04 05:14:29;;;;;;;16.20;10.38;;;;;;;;;;5050467;28;20110;-49
2024/02/04 05:16:55;;;;;;;14.75;10.13;;;;;;;;;;5050795;28;20471;-49
2024/02/04 05:19:21;;;;;;;14.77;9.90;;;;;;;;;;5050667;28;20074;-50
2024/02/04 05:21:47;;;;;;;13.40;8.07;;;;;;;;;;5049140;28;20025;-54
2024/02/04 05:24:13;;;;;;;15.52;8.77;;;;;;;;;;5050510;28;20475;-52
2024/02/04 05:26:39;;;;;;;13.68;8.80;;;;;;;;;;5050328;28;20021;-48
2024/02/04 05:29:05;;;;;;;13.57;8.73;;;;;;;;;;5050455;28;20032;-48
2024/02/04 05:31:31;;;;;;;14.18;8.98;;;;;;;;;;5050173;28;20391;-50
2024/02/04 05:33:57;;;;;;;14.63;9.70;;;;;;;;;;5048820;28;20029;-52
2024/02/04 05:36:23;;;;;;;15.75;8.93;;;;;;;;;;5050193;28;20445;-54
2024/02/04 05:38:49;;;;;;;13.43;8.35;;;;;;;;;;5050179;28;20036;-47
2024/02/04 05:41:15;;;;;;;16.20;10.73;;;;;;;;;;5050012;28;20028;-43
2024/02/04 05:43:41;;;;;;;14.05;8.73;;;;;;;;;;5049926;28;20028;-45
2024/02/04 05:46:07;;;;;;;13.15;7.70;;;;;;;;;;5050332;28;20047;-50
2024/02/04 05:48:33;;;;;;;17.33;10.25;;;;;;;;;;5050008;28;20513;-48
2024/02/04 05:51:00;;;;;;;13.80;8.85;;;;;;;;;;5049700;28;20107;-43
2024/02/04 05:53:26;;;;;;;13.80;8.90;;;;;;;;;;5049792;28;20029;-48
2024/02/04 05:55:52;;;;;;;13.88;7.95;;;;;;;;;;5049954;28;20028;-50
2024/02/04 05:58:18;;;;;;;13.02;7.60;;;;;;;;;;5049889;28;20029;-47
2024/02/04 06:00:44;;;;;;;13.30;8.43;;;;;;;;;;5049712;28;20527;-47
2024/02/04 06:03:10;;;;;;;15.98;9.82;;;;;;;;;;5049959;28;20059;-49
2024/02/04 06:05:36;;;;;;;14.13;9.43;;;;;;;;;;5050052;28;20548;-46
2024/02/04 06:08:02;;;;;;;14.38;9.15;;;;;;;;;;5049828;28;20025;-48
2024/02/04 06:10:28;;;;;;;13.32;7.93;;;;;;;;;;5049803;28;20410;-49
2024/02/04 06:12:54;;;;;;;13.63;8.18;;;;;;;;;;5048232;28;20064;-46
2024/02/04 06:15:21;;;;;;;12.63;7.43;;;;;;;;;;5049773;28;20438;-45
2024/02/04 06:17:47;;;;;;;13.90;8.75;;;;;;;;;;5049733;28;20033;-48
2024/02/04 06:20:13;;;;;;;17.23;8.90;;;;;;;;;;5048518;28;20056;-50
2024/02/04 06:22:39;;;;;;;12.43;7.35;;;;;;;;;;5049884;28;20067;-51
2024/02/04 06:25:05;;;;;;;15.05;9.18;;;;;;;;;;5048612;28;20021;-48
2024/02/04 06:27:31;;;;;;;15.63;11.10;;;;;;;;;;5052866;28;20025;-45
2024/02/04 06:29:57;;;;;;;19.13;11.25;;;;;;;;;;5052339;28;20060;-48
2024/02/04 06:32:24;;;;;;;19.55;11.57;;;;;;;;;;5053191;28;20028;-51
2024/02/04 06:34:51;;;;;;;13.10;8.32;;;;;;;;;;5052487;28;20108;-50
2024/02/04 06:37:17;;;;;;;17.13;9.48;;;;;;;;;;5053660;28;20040;-47
2024/02/04 06:39:43;;;;;;;14.80;9.35;;;;;;;;;;5053619;28;20028;-47
2024/02/04 06:42:09;;;;;;;16.45;10.35;;;;;;;;;;5053171;28;20025;-46
2024/02/04 06:44:35;;;;;;;13.35;8.18;;;;;;;;;;5053356;28;20017;-50
2024/02/04 06:47:01;;;;;;;14.57;9.75;;;;;;;;;;5053201;28;20024;-48
2024/02/04 06:49:27;;;;;;;13.95;8.70;;;;;;;;;;5053550;28;20040;-46
2024/02/04 06:51:56;;;;;;;16.13;11.60;;;;;;;;;;5066403;22;20049;-56
2024/02/04 06:54:23;;;;;;;15.48;12.20;;;;;;;;;;5050396;28;20048;-56
2024/02/04 06:56:49;;;;;;;17.00;14.65;;;;;;;;;;5051949;28;20487;-55
2024/02/04 06:59:14;;;;;;;15.30;13.60;;;;;;;;;;5051960;28;20076;-58
2024/02/04 07:01:40;;;;;;;16.42;14.07;;;;;;;;;;5051632;28;20455;-59
2024/02/04 07:04:06;;;;;;;15.68;13.98;;;;;;;;;;5051746;28;20083;-58
2024/02/04 07:06:32;;;;;;;16.55;14.85;;;;;;;;;;5051552;28;20028;-58
2024/02/04 07:08:58;;;;;;;16.95;15.25;;;;;;;;;;5051551;28;20017;-57
2024/02/04 07:11:25;;;;;;;16.25;14.55;;;;;;;;;;5051094;28;20348;-53
2024/02/04 07:13:58;;;;;;;16.60;14.90;;;;;;;;;;5050030;28;20475;-54
2024/02/04 07:16:24;;;;;;;17.33;15.52;;;;;;;;;;5051536;28;20017;-57
2024/02/04 07:18:50;;;;;;;17.75;15.98;;;;;;;;;;5051298;28;20032;-54
2024/02/04 07:21:16;;;;;;;20.20;18.13;;;;;;;;;;5051176;28;20340;-58
2024/02/04 07:23:42;;;;;;;20.35;18.35;;;;;;;;;;5050932;28;20138;-57
2024/02/04 07:26:08;;;;;;;18.90;17.10;;;;;;;;;;5051119;28;20043;-56
2024/02/04 07:28:34;;;;;;;17.70;15.90;;;;;;;;;;5051037;28;20170;-58
2024/02/04 07:31:00;;;;;;;18.35;16.45;;;;;;;;;;5050785;28;20033;-56
2024/02/04 07:33:26;;;;;;;15.95;14.25;;;;;;;;;;5050526;28;20021;-54
2024/02/04 07:35:52;;;;;;;15.38;13.68;;;;;;;;;;5050883;28;20044;-57
2024/02/04 07:38:18;;;;;;;17.58;14.68;;;;;;;;;;5050205;28;20071;-58
2024/02/04 07:40:45;;;;;;;18.00;14.57;;;;;;;;;;5050925;28;20519;-58
2024/02/04 07:43:10;;;;;;;15.25;12.70;;;;;;;;;;5050579;28;20025;-57
2024/02/04 07:45:37;;;;;;;18.15;16.23;;;;;;;;;;5049431;28;20162;-56
2024/02/04 07:48:03;;;;;;;15.48;12.80;;;;;;;;;;5051098;28;20021;-58
2024/02/04 07:50:29;;;;;;;16.50;13.25;;;;;;;;;;5050481;28;20483;-58
2024/02/04 07:52:55;;;;;;;15.43;12.45;;;;;;;;;;5049369;28;20036;-54
2024/02/04 07:55:21;;;;;;;16.35;13.45;;;;;;;;;;5051041;28;20032;-57
2024/02/04 07:57:47;;;;;;;20.38;14.77;;;;;;;;;;5050788;28;20048;-58
2024/02/04 08:00:13;;;;;;;14.77;11.65;;;;;;;;;;5050522;28;20514;-55
2024/02/04 08:02:40;;;;;;;14.52;11.43;;;;;;;;;;5050299;28;20522;-55
2024/02/04 08:05:06;;;;;;;14.50;11.32;;;;;;;;;;5050454;28;20108;-55
2024/02/04 08:07:32;;;;;;;14.38;10.95;;;;;;;;;;5050655;28;20394;-56
2024/02/04 08:09:58;;;;;;;16.10;11.35;;;;;;;;;;5050397;28;20029;-56
2024/02/04 08:12:24;;;;;;;14.30;10.95;;;;;;;;;;5049987;28;20455;-57
2024/02/04 08:14:50;;;;;;;15.45;12.27;;;;;;;;;;5050674;28;20036;-57
2024/02/04 08:17:16;;;;;;;14.20;10.75;;;;;;;;;;5050903;28;20479;-53
2024/02/04 08:19:42;;;;;;;14.30;10.82;;;;;;;;;;5048653;28;20032;-57
2024/02/04 08:22:08;;;;;;;15.40;11.15;;;;;;;;;;5049515;28;20075;-54
2024/02/04 08:24:34;;;;;;;14.20;10.43;;;;;;;;;;5048852;28;20025;-55
2024/02/04 08:27:01;;;;;;;15.60;10.95;;;;;;;;;;5050077;28;20139;-57
2024/02/04 08:29:27;;;;;;;14.40;10.80;;;;;;;;;;5048605;28;20115;-57
2024/02/04 08:31:53;;;;;;;16.15;11.40;;;;;;;;;;5049669;28;20040;-55
2024/02/04 08:34:24;;;;;;;14.75;10.40;;;;;;;;;;5049643;28;20068;-56
2024/02/04 08:36:50;;;;;;;14.20;10.55;;;;;;;;;;5048906;28;20013;-59
2024/02/04 08:39:16;;;;;;;14.57;10.95;;;;;;;;;;5049623;28;20017;-59
2024/02/04 08:41:42;;;;;;;14.50;10.52;;;;;;;;;;5048245;28;20063;-57
2024/02/04 08:44:08;;;;;;;14.93;10.68;;;;;;;;;;5049620;28;20109;-59
2024/02/04 08:46:34;;;;;;;13.88;9.57;;;;;;;;;;5049658;28;20465;-54
2024/02/04 08:49:00;;;;;;;14.30;10.02;;;;;;;;;;5049259;28;20107;-58
2024/02/04 08:51:26;;;;;;;13.90;9.48;;;;;;;;;;5045167;28;20116;-57
2024/02/04 08:53:52;;;;;;;13.88;9.65;;;;;;;;;;5038928;28;20033;-56
2024/02/04 08:56:18;;;;;;;14.10;9.75;;;;;;;;;;5035626;28;20022;-56
2024/02/04 08:58:45;;;;;;;14.32;9.88;;;;;;;;;;5029793;28;20021;-55
2024/02/04 09:01:11;;;;;;;13.90;9.30;;;;;;;;;;5046280;28;20032;-52
2024/02/04 09:03:37;;;;;;;13.70;9.02;;;;;;;;;;5048996;28;20099;-54
2024/02/04 09:06:03;;;;;;;15.27;10.13;;;;;;;;;;5049323;28;20044;-52
2024/02/04 09:08:29;;;;;;;13.68;8.77;;;;;;;;;;5040496;28;20109;-55
2024/02/04 09:10:56;;;;;;;34.60;9.35;;;;;;;;;;5029114;28;20659;-53
2024/02/04 09:13:22;;;;;;;19.23;8.68;;;;;;;;;;5028819;28;20144;-55
2024/02/04 09:15:49;;;;;;;15.35;9.95;;;;;;;;;;5029134;28;20106;-54
2024/02/04 09:18:15;;;;;;;13.80;8.35;;;;;;;;;;5028985;28;20065;-56
2024/02/04 09:20:41;;;;;;;14.32;9.05;;;;;;;;;;5029054;28;20053;-52
2024/02/04 09:23:07;;;;;;;14.15;8.20;;;;;;;;;;5029009;28;20033;-54
2024/02/04 09:25:33;;;;;;;13.30;7.93;;;;;;;;;;5036318;28;20035;-56
2024/02/04 09:27:59;;;;;;;13.68;8.63;;;;;;;;;;5049166;28;20033;-51
2024/02/04 09:30:25;;;;;;;13.43;8.18;;;;;;;;;;5048786;28;20021;-54
2024/02/04 09:32:51;;;;;;;14.23;8.50;;;;;;;;;;5048481;28;20021;-54
2024/02/04 09:35:18;;;;;;;13.80;8.93;;;;;;;;;;5048698;28;20430;-56
2024/02/04 09:37:44;;;;;;;13.25;7.93;;;;;;;;;;5048707;28;20025;-52
2024/02/04 09:40:10;;;;;;;13.77;8.15;;;;;;;;;;5048454;28;20078;-56
2024/02/04 09:42:36;;;;;;;13.38;8.15;;;;;;;;;;5048573;28;20108;-52
2024/02/04 09:45:02;;;;;;;13.68;8.48;;;;;;;;;;5049017;28;20040;-55
2024/02/04 09:47:29;;;;;;;13.00;7.78;;;;;;;;;;5047411;28;20091;-55
2024/02/04 09:49:56;;;;;;;13.15;7.80;;;;;;;;;;5048724;28;20063;-57
2024/02/04 09:52:25;;;;;;;13.15;7.80;;;;;;;;;;5046715;28;20029;-50
2024/02/04 09:54:56;;;;;;;13.27;7.88;;;;;;;;;;5048615;28;20021;-50
2024/02/04 09:57:22;;;;;;;12.50;7.50;;;;;;;;;;5047970;28;20112;-51
2024/02/04 09:59:48;;;;;;;15.27;10.27;;;;;;;;;;5048111;28;20044;-54
2024/02/04 10:02:15;;;;;;;13.43;8.32;;;;;;;;;;5050868;28;20116;-57
2024/02/04 10:04:41;;;;;;;14.63;8.48;;;;;;;;;;5050764;28;20430;-55
2024/02/04 10:07:07;;;;;;;12.27;7.38;;;;;;;;;;5052262;28;20017;-55
2024/02/04 10:09:33;;;;;;;12.60;7.45;;;;;;;;;;5052141;28;20099;-54
2024/02/04 10:11:59;;;;;;;12.80;7.40;;;;;;;;;;5052972;28;20104;-54
2024/02/04 10:14:25;;;;;;;12.50;7.30;;;;;;;;;;5052523;28;20025;-54
2024/02/04 10:16:51;;;;;;;11.65;6.80;;;;;;;;;;5052160;28;20486;-55
2024/02/04 10:19:17;;;;;;;11.35;6.70;;;;;;;;;;5052422;28;20103;-54
2024/02/04 10:21:43;;;;;;;11.15;5.82;;;;;;;;;;5051963;28;20032;-55
2024/02/04 10:24:09;;;;;;;8.75;5.20;;;;;;;;;;5055288;28;20032;-55
2024/02/04 10:26:37;;;;;;;9.98;6.20;;;;;;;;;;5054976;28;20071;-55
2024/02/04 10:29:03;;;;;;;9.80;5.80;;;;;;;;;;5056539;28;20112;-55
2024/02/04 10:31:29;;;;;;;10.23;5.95;;;;;;;;;;5052858;28;20091;-55
2024/02/04 10:33:56;;;;;;;10.35;6.38;;;;;;;;;;5052393;28;20079;-55
2024/02/04 10:36:22;;;;;;;9.57;5.63;;;;;;;;;;5052376;28;20835;-51
2024/02/04 10:38:48;;;;;;;9.30;5.50;;;;;;;;;;5052647;28;20102;-55
2024/02/04 10:41:15;;;;;;;9.55;5.57;;;;;;;;;;5051837;28;20025;-56
2024/02/04 10:43:42;;;;;;;10.98;6.55;;;;;;;;;;5050834;28;20116;-50
2024/02/04 10:46:11;;;;;;;9.90;6.15;;;;;;;;;;5052358;28;20098;-51
2024/02/04 10:48:42;;;;;;;11.68;6.75;;;;;;;;;;5052251;28;20465;-50
2024/02/04 10:51:12;;;;;;;11.13;6.75;;;;;;;;;;5051844;28;20033;-55
2024/02/04 10:53:39;;;;;;;9.50;5.65;;;;;;;;;;5052003;28;20052;-53
2024/02/04 10:56:06;;;;;;;10.90;5.93;;;;;;;;;;5052072;28;20032;-52
2024/02/04 10:58:33;;;;;;;12.38;6.15;;;;;;;;;;5050459;28;20021;-54
2024/02/04 11:01:00;;;;;;;10.85;6.05;;;;;;;;;;5051980;28;20402;-54
2024/02/04 11:03:27;;;;;;;12.88;6.68;;;;;;;;;;5051293;28;20032;-56
2024/02/04 11:05:54;;;;;;;10.10;6.63;;;;;;;;;;5051749;28;20033;-52
2024/02/04 11:08:20;;;;;;;10.30;5.75;;;;;;;;;;5051535;28;20451;-58
2024/02/04 11:10:46;;;;;;;10.05;5.80;;;;;;;;;;5051553;28;20499;-54
2024/02/04 11:13:12;;;;;;;9.50;5.57;;;;;;;;;;5048947;28;20132;-55
2024/02/04 11:15:44;;;;;;;9.30;5.50;;;;;;;;;;5051491;28;20026;-54
2024/02/04 11:18:19;;;;;;;9.95;6.28;;;;;;;;;;5051683;28;20020;-57
2024/02/04 11:20:45;;;;;;;18.50;8.02;;;;;;;;;;5043619;28;20013;-51
2024/02/04 11:23:30;;;;;;;11.10;5.93;;;;;;;;;;5046018;28;20119;-53
2024/02/04 11:25:57;;;;;;;11.90;6.95;;;;;;;;;;5037128;28;20075;-54
2024/02/04 11:28:25;;;;;;;10.23;5.45;;;;;;;;;;5043472;28;20071;-54
2024/02/04 11:30:51;;;;;;;9.30;5.40;;;;;;;;;;5043670;28;20021;-53
2024/02/04 11:33:19;;;;;;;9.80;5.63;;;;;;;;;;5044018;28;20361;-57
2024/02/04 11:35:45;;;;;;;7.70;4.60;;;;;;;;;;5041941;28;20158;-56
2024/02/04 11:38:13;;;;;;;9.63;5.75;;;;;;;;;;5043289;28;20139;-57
2024/02/04 11:40:39;;;;;;;8.05;4.72;;;;;;;;;;5045174;28;20021;-57
2024/02/04 11:43:06;;;;;;;8.60;4.75;;;;;;;;;;5041171;28;20133;-55
2024/02/04 11:45:32;;;;;;;8.45;5.32;;;;;;;;;;5039325;28;20071;-51
2024/02/04 11:48:04;;;;;;;9.18;5.05;;;;;;;;;;5046566;28;20419;-55
2024/02/04 11:50:31;;;;;;;9.40;5.40;;;;;;;;;;5050878;28;20025;-53
2024/02/04 11:53:07;;;;;;;9.00;5.30;;;;;;;;;;5043228;28;20693;-53
2024/02/04 11:55:34;;;;;;;8.93;5.18;;;;;;;;;;5039529;28;20376;-54
2024/02/04 11:58:00;;;;;;;9.63;5.15;;;;;;;;;;5039406;28;20026;-50
2024/02/04 12:00:26;;;;;;;8.60;5.00;;;;;;;;;;5040839;28;20021;-55
2024/02/04 12:03:05;;;;;;;12.07;5.38;;;;;;;;;;5040071;28;20036;-53
2024/02/04 12:05:33;;;;;;;8.68;5.03;;;;;;;;;;5040146;28;20029;-54
2024/02/04 12:08:00;;;;;;;11.90;6.45;;;;;;;;;;5038752;28;20066;-56
2024/02/04 12:10:27;;;;;;;9.27;5.53;;;;;;;;;;5040251;28;20033;-59
2024/02/04 12:12:53;;;;;;;8.75;5.10;;;;;;;;;;5038471;28;20470;-56
2024/02/04 12:15:19;;;;;;;9.48;5.88;;;;;;;;;;5038492;28;20110;-55
2024/02/04 12:17:45;;;;;;;13.68;5.57;;;;;;;;;;5041526;28;20047;-54
2024/02/04 12:20:11;;;;;;;8.43;4.97;;;;;;;;;;5039345;28;20029;-54
2024/02/04 12:22:37;;;;;;;10.25;6.00;;;;;;;;;;5040522;28;20029;-59
2024/02/04 12:25:03;;;;;;;11.77;6.45;;;;;;;;;;5038404;28;20103;-58
2024/02/04 12:27:29;;;;;;;12.63;7.43;;;;;;;;;;5039600;28;20020;-55
2024/02/04 12:29:55;;;;;;;14.30;10.15;;;;;;;;;;5040064;28;20090;-54
2024/02/04 12:32:22;;;;;;;16.23;14.50;;;;;;;;;;5037608;28;20124;-51
2024/02/04 12:34:53;;;;;;;17.67;15.98;;;;;;;;;;5039367;28;20390;-57
2024/02/04 12:37:19;;;;;;;18.25;16.45;;;;;;;;;;5040346;28;20062;-50
2024/02/04 12:39:46;;;;;;;20.40;18.58;;;;;;;;;;5037352;28;20104;-56
2024/02/04 12:42:18;;;;;;;23.35;21.35;;;;;;;;;;5038809;28;20052;-56
2024/02/04 12:44:44;;;;;;;23.98;21.98;;;;;;;;;;5049789;28;20028;-57
2024/02/04 12:47:11;;;;;;;25.70;23.60;;;;;;;;;;5048234;28;20028;-56
2024/02/04 12:49:37;;;;;;;28.35;26.00;;;;;;;;;;5049806;28;20091;-54
2024/02/04 12:52:06;;;;;;;26.45;24.35;;;;;;;;;;5049773;28;20526;-54
2024/02/04 12:54:41;;;;;;;28.67;26.48;;;;;;;;;;5048621;28;20485;-54
2024/02/04 12:57:07;;;;;;;28.38;26.02;;;;;;;;;;5049917;28;20091;-55
2024/02/04 12:59:34;;;;;;;28.60;26.40;;;;;;;;;;5038910;28;20394;-53
2024/02/04 13:02:18;;;;;;;27.95;25.75;;;;;;;;;;5027772;28;20029;-51
2024/02/04 13:04:45;;;;;;;28.92;26.70;;;;;;;;;;5029129;28;20487;-54
2024/02/04 13:07:16;;;;;;;29.50;27.30;;;;;;;;;;5029514;28;20120;-53
2024/02/04 13:09:42;;;;;;;31.20;28.77;;;;;;;;;;5029324;28;20499;-52
2024/02/04 13:12:09;;;;;;;30.70;28.40;;;;;;;;;;5028939;28;20026;-54
2024/02/04 13:14:36;;;;;;;31.90;29.50;;;;;;;;;;5029162;28;20495;-56
2024/02/04 13:17:02;;;;;;;32.47;30.08;;;;;;;;;;5029558;28;20638;-56
2024/02/04 13:19:38;;;;;;;31.63;29.23;;;;;;;;;;5037112;28;20024;-56
2024/02/04 13:22:06;;;;;;;31.67;29.38;;;;;;;;;;5037575;28;20033;-56
2024/02/04 13:24:32;;;;;;;31.85;29.45;;;;;;;;;;5038593;28;20053;-51
2024/02/04 13:26:58;;;;;;;32.05;29.65;;;;;;;;;;5039782;28;20051;-52
2024/02/04 13:29:24;;;;;;;30.98;28.67;;;;;;;;;;5038118;28;20029;-56
2024/02/04 13:31:51;;;;;;;31.20;28.90;;;;;;;;;;5038649;28;20041;-56
2024/02/04 13:34:16;;;;;;;27.73;25.52;;;;;;;;;;5037440;28;20032;-56
2024/02/04 13:36:43;;;;;;;27.55;25.45;;;;;;;;;;5038004;28;20021;-55
2024/02/04 13:39:12;;;;;;;28.45;26.25;;;;;;;;;;5041460;28;20025;-56
2024/02/04 13:41:38;;;;;;;30.55;28.25;;;;;;;;;;5046780;28;20075;-55
2024/02/04 13:44:04;;;;;;;32.28;29.88;;;;;;;;;;5049506;28;20057;-55
2024/02/04 13:46:30;;;;;;;31.85;29.45;;;;;;;;;;5049432;28;20025;-55
2024/02/04 13:48:56;;;;;;;32.22;29.83;;;;;;;;;;5049562;28;20440;-54
2024/02/04 13:51:22;;;;;;;31.85;29.45;;;;;;;;;;5048862;28;20044;-58
2024/02/04 13:53:48;;;;;;;34.78;32.28;;;;;;;;;;5048850;28;20475;-51
2024/02/04 13:56:14;;;;;;;31.75;29.35;;;;;;;;;;5049175;28;20071;-54
2024/02/04 13:58:40;;;;;;;40.10;37.25;;;;;;;;;;5049401;28;20032;-52
2024/02/04 14:01:06;;;;;;;38.45;35.75;;;;;;;;;;5049383;28;20064;-50
2024/02/04 14:03:32;;;;;;;39.55;36.75;;;;;;;;;;5049098;28;20510;-53
2024/02/04 14:05:58;;;;;;;42.58;39.67;;;;;;;;;;5064806;28;20045;-50
2024/02/04 14:08:24;;;;;;;43.25;40.25;;;;;;;;;;5049127;28;20028;-49
2024/02/04 14:10:51;;;;;;;40.85;37.60;;;;;;;;;;5048983;28;20532;-55
2024/02/04 14:13:17;;;;;;;40.05;37.25;;;;;;;;;;5047700;28;20033;-50
2024/02/04 14:15:43;;;;;;;35.75;33.15;;;;;;;;;;5049419;28;20190;-54
2024/02/04 14:18:09;;;;;;;37.03;34.33;;;;;;;;;;5047505;28;20085;-57
2024/02/04 14:20:35;;;;;;;35.00;32.40;;;;;;;;;;5038703;28;20017;-51